createdAt,value
2022-08-07T00:00:18.559Z,13.74
2022-08-07T00:01:44.163Z,13.74
2022-08-07T00:02:40.629Z,13.73
2022-08-07T00:03:16.742Z,13.72
2022-08-07T00:04:15.842Z,13.71
2022-08-07T00:05:15.788Z,13.70
2022-08-07T00:06:15.739Z,13.69
2022-08-07T00:07:15.821Z,13.68
2022-08-07T00:08:15.701Z,13.67
2022-08-07T00:09:16.204Z,13.66
2022-08-07T00:10:27.256Z,13.65
2022-08-07T00:11:19.967Z,13.64
2022-08-07T00:12:19.345Z,13.63
2022-08-07T00:13:25.749Z,13.63
2022-08-07T00:14:16.613Z,13.62
2022-08-07T00:15:15.624Z,13.60
2022-08-07T00:16:17.535Z,13.58
2022-08-07T00:17:16.600Z,13.57
2022-08-07T00:18:19.850Z,13.56
2022-08-07T00:19:21.763Z,13.55
2022-08-07T00:20:29.971Z,13.54
2022-08-07T00:21:56.611Z,13.54
2022-08-07T00:22:24.649Z,13.53
2022-08-07T00:23:17.081Z,13.51
2022-08-07T00:24:15.495Z,13.50
2022-08-07T00:25:16.622Z,13.48
2022-08-07T00:26:31.166Z,13.45
2022-08-07T00:27:16.450Z,13.43
2022-08-07T00:28:15.514Z,13.41
2022-08-07T00:29:15.440Z,13.38
2022-08-07T00:30:26.646Z,13.36
2022-08-07T00:31:16.480Z,13.35
2022-08-07T00:32:15.401Z,13.34
2022-08-07T00:33:15.401Z,13.34
2022-08-07T00:34:15.374Z,13.34
2022-08-07T00:35:16.646Z,13.33
2022-08-07T00:36:15.357Z,13.31
2022-08-07T00:37:15.333Z,13.29
2022-08-07T00:38:15.351Z,13.27
2022-08-07T00:39:16.559Z,13.25
2022-08-07T00:40:15.312Z,13.22
2022-08-07T00:41:16.292Z,13.19
2022-08-07T00:42:15.305Z,13.16
2022-08-07T00:43:59.702Z,13.13
2022-08-07T00:44:16.272Z,13.10
2022-08-07T00:45:16.336Z,13.06
2022-08-07T00:46:15.246Z,13.03
2022-08-07T00:47:15.648Z,13.01
2022-08-07T00:48:16.232Z,13.00
2022-08-07T00:49:24.761Z,12.99
2022-08-07T00:50:19.097Z,12.98
2022-08-07T00:51:16.175Z,12.96
2022-08-07T00:52:19.834Z,12.95
2022-08-07T00:53:16.154Z,12.94
2022-08-07T00:54:15.165Z,12.93
2022-08-07T00:55:17.376Z,12.90
2022-08-07T00:56:16.124Z,12.88
2022-08-07T00:57:15.113Z,12.85
2022-08-07T00:58:15.099Z,12.83
2022-08-07T00:59:15.107Z,12.81
2022-08-07T01:00:15.075Z,12.79
2022-08-07T01:01:15.170Z,12.77
2022-08-07T01:02:29.273Z,12.76
2022-08-07T01:03:16.047Z,12.74
2022-08-07T01:04:24.583Z,12.73
2022-08-07T01:05:18.866Z,12.71
2022-08-07T01:06:15.749Z,12.70
2022-08-07T01:07:14.997Z,12.69
2022-08-07T01:08:14.987Z,12.68
2022-08-07T01:10:04.585Z,12.67
2022-08-07T01:10:15.960Z,12.66
2022-08-07T01:12:09.881Z,12.65
2022-08-07T01:12:28.639Z,12.64
2022-08-07T01:13:16.364Z,12.64
2022-08-07T01:14:15.459Z,12.63
2022-08-07T01:15:17.668Z,12.62
2022-08-07T01:16:14.889Z,12.62
2022-08-07T01:17:15.888Z,12.61
2022-08-07T01:18:17.644Z,12.61
2022-08-07T01:19:19.139Z,12.60
2022-08-07T01:20:17.192Z,12.60
2022-08-07T01:21:22.518Z,12.60
2022-08-07T01:22:16.256Z,12.60
2022-08-07T01:23:15.814Z,12.60
2022-08-07T01:24:14.796Z,12.60
2022-08-07T01:25:54.643Z,12.59
2022-08-07T01:26:16.699Z,12.59
2022-08-07T01:27:19.514Z,12.60
2022-08-07T01:28:15.748Z,12.60
2022-08-07T01:29:14.739Z,12.59
2022-08-07T01:30:14.747Z,12.58
2022-08-07T01:31:15.398Z,12.55
2022-08-07T01:32:14.699Z,12.53
2022-08-07T01:33:14.698Z,12.51
2022-08-07T01:34:14.686Z,12.49
2022-08-07T01:35:17.194Z,12.49
2022-08-07T01:36:15.082Z,12.49
2022-08-07T01:37:14.648Z,12.48
2022-08-07T01:38:14.640Z,12.47
2022-08-07T01:39:15.673Z,12.47
2022-08-07T01:40:14.929Z,12.46
2022-08-07T01:41:14.614Z,12.44
2022-08-07T01:42:38.373Z,12.43
2022-08-07T01:43:15.569Z,12.42
2022-08-07T01:44:14.561Z,12.41
2022-08-07T01:45:18.375Z,12.40
2022-08-07T01:46:15.560Z,12.39
2022-08-07T01:48:21.162Z,12.36
2022-08-07T01:48:21.722Z,12.38
2022-08-07T01:49:15.549Z,12.35
2022-08-07T01:50:14.499Z,12.33
2022-08-07T01:52:00.987Z,12.30
2022-08-07T01:52:15.483Z,12.28
2022-08-07T01:53:21.604Z,12.26
2022-08-07T01:54:33.387Z,12.24
2022-08-07T01:55:22.527Z,12.22
2022-08-07T01:56:15.445Z,12.19
2022-08-07T01:57:24.204Z,12.18
2022-08-07T01:58:27.448Z,12.16
2022-08-07T01:59:15.737Z,12.14
2022-08-07T02:00:14.381Z,12.12
2022-08-07T02:01:25.643Z,12.10
2022-08-07T02:02:32.648Z,12.09
2022-08-07T02:03:21.177Z,12.08
2022-08-07T02:04:15.360Z,12.07
2022-08-07T02:05:15.985Z,12.06
2022-08-07T02:06:30.789Z,12.06
2022-08-07T02:07:15.315Z,12.05
2022-08-07T02:08:14.285Z,12.04
2022-08-07T02:09:33.751Z,12.02
2022-08-07T02:10:15.258Z,12.00
2022-08-07T02:11:31.039Z,11.98
2022-08-07T02:12:15.248Z,11.97
2022-08-07T02:13:14.253Z,11.96
2022-08-07T02:14:35.458Z,11.95
2022-08-07T02:15:15.193Z,11.93
2022-08-07T02:16:14.187Z,11.92
2022-08-07T02:17:16.511Z,11.91
2022-08-07T02:18:15.189Z,11.90
2022-08-07T02:20:04.629Z,11.89
2022-08-07T02:20:17.431Z,11.88
2022-08-07T02:21:16.150Z,11.87
2022-08-07T02:22:14.128Z,11.85
2022-08-07T02:23:14.153Z,11.84
2022-08-07T02:24:17.811Z,11.83
2022-08-07T02:25:18.107Z,11.82
2022-08-07T02:26:32.424Z,11.80
2022-08-07T02:27:15.072Z,11.79
2022-08-07T02:28:14.065Z,11.77
2022-08-07T02:29:15.030Z,11.76
2022-08-07T02:30:15.024Z,11.75
2022-08-07T02:31:28.243Z,11.73
2022-08-07T02:32:15.002Z,11.72
2022-08-07T02:33:13.994Z,11.71
2022-08-07T02:34:17.276Z,11.70
2022-08-07T02:35:13.974Z,11.69
2022-08-07T02:36:30.727Z,11.68
2022-08-07T02:37:14.949Z,11.67
2022-08-07T02:38:13.939Z,11.66
2022-08-07T02:39:17.318Z,11.65
2022-08-07T02:40:30.266Z,11.64
2022-08-07T02:41:14.940Z,11.62
2022-08-07T02:42:16.364Z,11.60
2022-08-07T02:43:13.878Z,11.58
2022-08-07T02:44:13.889Z,11.56
2022-08-07T02:45:58.921Z,11.55
2022-08-07T02:46:15.136Z,11.53
2022-08-07T02:47:19.540Z,11.50
2022-08-07T02:48:15.723Z,11.49
2022-08-07T02:49:29.117Z,11.47
2022-08-07T02:50:14.788Z,11.46
2022-08-07T02:51:29.046Z,11.45
2022-08-07T02:52:14.767Z,11.44
2022-08-07T02:53:13.760Z,11.43
2022-08-07T02:54:13.767Z,11.42
2022-08-07T02:55:27.554Z,11.40
2022-08-07T02:56:21.210Z,11.37
2022-08-07T02:57:14.715Z,11.35
2022-08-07T02:58:13.720Z,11.33
2022-08-07T02:59:13.709Z,11.32
2022-08-07T03:00:13.699Z,11.31
2022-08-07T03:01:18.558Z,11.30
2022-08-07T03:02:14.709Z,11.29
2022-08-07T03:03:13.829Z,11.28
2022-08-07T03:04:14.620Z,11.27
2022-08-07T03:05:20.549Z,11.26
2022-08-07T03:06:16.342Z,11.25
2022-08-07T03:07:13.602Z,11.24
2022-08-07T03:08:13.776Z,11.23
2022-08-07T03:09:13.572Z,11.23
2022-08-07T03:10:14.230Z,11.23
2022-08-07T03:11:13.544Z,11.24
2022-08-07T03:12:22.174Z,11.24
2022-08-07T03:13:14.511Z,11.24
2022-08-07T03:14:13.511Z,11.24
2022-08-07T03:15:13.514Z,11.23
2022-08-07T03:16:14.493Z,11.22
2022-08-07T03:17:13.474Z,11.21
2022-08-07T03:18:17.537Z,11.20
2022-08-07T03:19:14.454Z,11.19
2022-08-07T03:20:13.431Z,11.19
2022-08-07T03:21:13.440Z,11.18
2022-08-07T03:22:18.790Z,11.18
2022-08-07T03:23:18.879Z,11.18
2022-08-07T03:24:20.376Z,11.17
2022-08-07T03:25:14.381Z,11.18
2022-08-07T03:26:15.661Z,11.17
2022-08-07T03:27:14.354Z,11.17
2022-08-07T03:28:38.460Z,11.17
2022-08-07T03:29:14.893Z,11.16
2022-08-07T03:30:13.321Z,11.15
2022-08-07T03:31:13.320Z,11.14
2022-08-07T03:32:13.714Z,11.12
2022-08-07T03:33:13.289Z,11.10
2022-08-07T03:34:18.739Z,11.09
2022-08-07T03:35:17.597Z,11.07
2022-08-07T03:36:13.244Z,11.06
2022-08-07T03:37:13.262Z,11.05
2022-08-07T03:38:13.451Z,11.03
2022-08-07T03:39:13.345Z,11.03
2022-08-07T03:40:15.923Z,11.01
2022-08-07T03:41:13.193Z,11.00
2022-08-07T03:42:13.222Z,10.99
2022-08-07T03:43:14.376Z,10.99
2022-08-07T03:44:13.156Z,10.99
2022-08-07T03:45:30.190Z,10.99
2022-08-07T03:46:18.610Z,10.99
2022-08-07T03:47:14.687Z,10.98
2022-08-07T03:48:13.102Z,10.98
2022-08-07T03:49:13.100Z,10.97
2022-08-07T03:50:13.083Z,10.96
2022-08-07T03:51:13.085Z,10.97
2022-08-07T03:52:22.357Z,10.97
2022-08-07T03:53:14.065Z,10.97
2022-08-07T03:54:36.096Z,10.96
2022-08-07T03:55:14.027Z,10.95
2022-08-07T03:56:13.773Z,10.94
2022-08-07T03:59:05.196Z,10.94
2022-08-07T03:59:05.242Z,10.92
2022-08-07T03:59:14.141Z,10.89
2022-08-07T04:00:12.967Z,10.88
2022-08-07T04:01:13.806Z,10.86
2022-08-07T04:02:12.945Z,10.85
2022-08-07T04:03:12.950Z,10.85
2022-08-07T04:04:17.271Z,10.84
2022-08-07T04:05:12.917Z,10.83
2022-08-07T04:06:36.370Z,10.82
2022-08-07T04:07:17.362Z,10.81
2022-08-07T04:08:12.896Z,10.79
2022-08-07T04:09:15.302Z,10.78
2022-08-07T04:10:15.741Z,10.78
2022-08-07T04:12:20.659Z,10.78
2022-08-07T04:12:27.462Z,10.77
2022-08-07T04:13:15.351Z,10.76
2022-08-07T04:14:38.114Z,10.74
2022-08-07T04:15:13.796Z,10.73
2022-08-07T04:16:12.780Z,10.72
2022-08-07T04:17:19.810Z,10.71
2022-08-07T04:18:58.537Z,10.71
2022-08-07T04:19:15.352Z,10.70
2022-08-07T04:20:12.727Z,10.69
2022-08-07T04:21:12.729Z,10.69
2022-08-07T04:22:17.521Z,10.69
2022-08-07T04:23:19.223Z,10.69
2022-08-07T04:24:30.360Z,10.69
2022-08-07T04:25:13.681Z,10.68
2022-08-07T04:26:12.660Z,10.67
2022-08-07T04:27:15.280Z,10.66
2022-08-07T04:28:13.667Z,10.65
2022-08-07T04:29:12.647Z,10.65
2022-08-07T04:30:21.584Z,10.64
2022-08-07T04:31:20.190Z,10.63
2022-08-07T04:32:13.579Z,10.62
2022-08-07T04:33:15.570Z,10.62
2022-08-07T04:34:16.924Z,10.61
2022-08-07T04:35:12.557Z,10.60
2022-08-07T04:36:12.539Z,10.59
2022-08-07T04:37:20.160Z,10.59
2022-08-07T04:38:13.514Z,10.58
2022-08-07T04:39:12.590Z,10.58
2022-08-07T04:40:12.512Z,10.58
2022-08-07T04:41:13.995Z,10.58
2022-08-07T04:42:13.469Z,10.58
2022-08-07T04:43:12.459Z,10.58
2022-08-07T04:44:18.567Z,10.58
2022-08-07T04:45:13.449Z,10.59
2022-08-07T04:46:12.547Z,10.59
2022-08-07T04:47:23.529Z,10.59
2022-08-07T04:48:13.729Z,10.59
2022-08-07T04:49:17.936Z,10.60
2022-08-07T04:50:13.400Z,10.60
2022-08-07T04:51:12.387Z,10.60
2022-08-07T04:52:12.354Z,10.61
2022-08-07T04:53:27.762Z,10.62
2022-08-07T04:54:13.338Z,10.62
2022-08-07T04:55:15.317Z,10.63
2022-08-07T04:58:16.042Z,10.64
2022-08-07T04:58:16.965Z,10.65
2022-08-07T04:58:43.121Z,10.67
2022-08-07T05:00:09.838Z,10.69
2022-08-07T05:00:19.052Z,10.71
2022-08-07T05:01:13.499Z,10.73
2022-08-07T05:02:16.968Z,10.74
2022-08-07T05:03:31.144Z,10.75
2022-08-07T05:04:17.271Z,10.76
2022-08-07T05:05:53.407Z,10.78
2022-08-07T05:06:19.501Z,10.80
2022-08-07T05:07:20.420Z,10.82
2022-08-07T05:08:13.162Z,10.84
2022-08-07T05:09:12.162Z,10.86
2022-08-07T05:10:12.165Z,10.88
2022-08-07T05:11:19.353Z,10.92
2022-08-07T05:12:13.137Z,10.97
2022-08-07T05:14:52.510Z,11.06
2022-08-07T05:14:55.860Z,11.01
2022-08-07T05:15:13.097Z,11.11
2022-08-07T05:16:13.066Z,11.18
2022-08-07T05:17:12.224Z,11.25
2022-08-07T05:18:13.051Z,11.34
2022-08-07T05:19:12.041Z,11.43
2022-08-07T05:20:12.020Z,11.53
2022-08-07T05:21:12.011Z,11.64
2022-08-07T05:22:12.004Z,11.76
2022-08-07T05:23:16.203Z,11.90
2022-08-07T05:24:11.984Z,12.05
2022-08-07T05:25:25.769Z,12.20
2022-08-07T05:26:18.863Z,12.33
2022-08-07T05:28:00.758Z,12.47
2022-08-07T05:28:19.872Z,12.60
2022-08-07T05:29:12.923Z,12.73
2022-08-07T05:30:11.902Z,12.87
2022-08-07T05:31:11.894Z,13.01
2022-08-07T05:32:11.885Z,13.16
2022-08-07T05:33:11.913Z,13.32
2022-08-07T05:34:12.232Z,13.47
2022-08-07T05:35:11.865Z,13.61
2022-08-07T05:36:12.204Z,13.74
2022-08-07T05:37:12.824Z,13.87
2022-08-07T05:38:11.817Z,13.99
2022-08-07T05:40:05.054Z,14.10
2022-08-07T05:40:18.769Z,14.22
2022-08-07T05:41:15.622Z,14.32
2022-08-07T05:42:12.951Z,14.43
2022-08-07T05:43:11.788Z,14.54
2022-08-07T05:44:12.921Z,14.68
2022-08-07T05:45:14.328Z,14.83
2022-08-07T05:46:12.724Z,14.93
2022-08-07T05:47:18.315Z,15.01
2022-08-07T05:48:12.704Z,15.08
2022-08-07T05:49:12.954Z,15.16
2022-08-07T05:50:11.696Z,15.28
2022-08-07T05:51:11.667Z,15.43
2022-08-07T05:52:11.993Z,15.60
2022-08-07T05:54:12.532Z,15.75
2022-08-07T05:54:31.340Z,15.90
2022-08-07T05:55:12.629Z,16.07
2022-08-07T05:56:12.476Z,16.24
2022-08-07T05:57:11.598Z,16.39
2022-08-07T05:58:11.601Z,16.54
2022-08-07T05:59:11.572Z,16.67
2022-08-07T06:00:16.283Z,16.79
2022-08-07T06:01:12.541Z,16.91
2022-08-07T06:02:11.581Z,17.01
2022-08-07T06:03:11.532Z,17.11
2022-08-07T06:04:11.516Z,17.23
2022-08-07T06:05:15.567Z,17.35
2022-08-07T06:06:11.490Z,17.46
2022-08-07T06:07:22.766Z,17.54
2022-08-07T06:08:29.424Z,17.59
2022-08-07T06:09:12.450Z,17.65
2022-08-07T06:10:15.329Z,17.77
2022-08-07T06:11:11.444Z,17.89
2022-08-07T06:12:11.459Z,17.99
2022-08-07T06:13:13.326Z,18.09
2022-08-07T06:14:20.822Z,18.22
2022-08-07T06:15:15.992Z,18.35
2022-08-07T06:16:13.446Z,18.45
2022-08-07T06:17:11.364Z,18.54
2022-08-07T06:18:12.165Z,18.62
2022-08-07T06:19:17.847Z,18.69
2022-08-07T06:20:25.482Z,18.78
2022-08-07T06:22:16.918Z,18.88
2022-08-07T06:22:23.153Z,18.99
2022-08-07T06:23:45.983Z,19.03
2022-08-07T06:24:52.221Z,19.05
2022-08-07T06:25:12.260Z,19.13
2022-08-07T06:26:11.280Z,19.21
2022-08-07T06:27:11.252Z,19.31
2022-08-07T06:28:14.154Z,19.44
2022-08-07T06:29:11.224Z,19.58
2022-08-07T06:30:24.079Z,19.67
2022-08-07T06:31:12.225Z,19.69
2022-08-07T06:32:11.187Z,19.70
2022-08-07T06:33:16.092Z,19.71
2022-08-07T06:34:12.166Z,19.72
2022-08-07T06:35:18.010Z,19.71
2022-08-07T06:36:13.767Z,19.70
2022-08-07T06:37:11.350Z,19.71
2022-08-07T06:38:20.064Z,19.75
2022-08-07T06:40:13.081Z,19.72
2022-08-07T06:40:16.703Z,19.63
2022-08-07T06:41:12.940Z,19.53
2022-08-07T06:42:11.144Z,19.50
2022-08-07T06:43:21.391Z,19.52
2022-08-07T06:44:12.056Z,19.54
2022-08-07T06:45:11.382Z,19.55
2022-08-07T06:46:11.557Z,19.58
2022-08-07T06:47:15.196Z,19.62
2022-08-07T06:48:11.338Z,19.67
2022-08-07T06:49:10.990Z,19.66
2022-08-07T06:50:11.044Z,19.65
2022-08-07T06:51:10.968Z,19.69
2022-08-07T06:52:10.982Z,19.76
2022-08-07T06:53:18.628Z,19.85
2022-08-07T06:55:31.764Z,19.95
2022-08-07T06:55:34.502Z,20.01
2022-08-07T06:56:15.343Z,20.03
2022-08-07T06:57:10.903Z,20.06
2022-08-07T06:58:10.908Z,20.13
2022-08-07T07:00:13.647Z,20.22
2022-08-07T07:00:18.190Z,20.30
2022-08-07T07:01:11.902Z,20.37
2022-08-07T07:02:11.350Z,20.48
2022-08-07T07:03:14.310Z,20.55
2022-08-07T07:04:32.546Z,20.55
2022-08-07T07:05:12.705Z,20.51
2022-08-07T07:06:11.191Z,20.47
2022-08-07T07:07:19.264Z,20.47
2022-08-07T07:08:12.551Z,20.55
2022-08-07T07:09:11.776Z,20.68
2022-08-07T07:10:11.751Z,20.81
2022-08-07T07:11:14.051Z,20.94
2022-08-07T07:12:19.245Z,21.06
2022-08-07T07:13:11.715Z,21.17
2022-08-07T07:14:10.744Z,21.26
2022-08-07T07:15:23.627Z,21.34
2022-08-07T07:16:11.686Z,21.41
2022-08-07T07:17:10.699Z,21.43
2022-08-07T07:18:11.666Z,21.40
2022-08-07T07:19:34.054Z,21.39
2022-08-07T07:20:11.637Z,21.42
2022-08-07T07:21:13.641Z,21.47
2022-08-07T07:22:36.280Z,21.49
2022-08-07T07:24:10.800Z,21.48
2022-08-07T07:24:12.981Z,21.44
2022-08-07T07:26:31.126Z,21.37
2022-08-07T07:26:34.882Z,21.30
2022-08-07T07:27:11.562Z,21.22
2022-08-07T07:28:41.948Z,21.13
2022-08-07T07:29:40.657Z,21.03
2022-08-07T07:30:12.124Z,20.92
2022-08-07T07:31:10.510Z,20.84
2022-08-07T07:32:10.506Z,20.84
2022-08-07T07:33:11.606Z,20.85
2022-08-07T07:34:10.478Z,20.80
2022-08-07T07:35:11.503Z,20.76
2022-08-07T07:36:13.514Z,20.80
2022-08-07T07:37:22.022Z,20.85
2022-08-07T07:38:11.518Z,20.86
2022-08-07T07:39:10.585Z,20.81
2022-08-07T07:40:14.972Z,20.75
2022-08-07T07:41:11.515Z,20.73
2022-08-07T07:42:14.021Z,20.77
2022-08-07T07:43:15.255Z,20.79
2022-08-07T07:44:17.969Z,20.75
2022-08-07T07:45:11.408Z,20.69
2022-08-07T07:46:38.539Z,20.69
2022-08-07T07:47:15.724Z,20.75
2022-08-07T07:48:11.411Z,20.83
2022-08-07T07:50:34.442Z,20.89
2022-08-07T07:50:35.717Z,20.93
2022-08-07T07:51:11.288Z,20.96
2022-08-07T07:52:10.304Z,21.01
2022-08-07T07:53:20.535Z,21.06
2022-08-07T07:54:11.263Z,21.13
2022-08-07T07:55:10.895Z,21.23
2022-08-07T07:56:10.238Z,21.35
2022-08-07T07:57:10.216Z,21.47
2022-08-07T07:58:10.230Z,21.55
2022-08-07T07:59:10.196Z,21.57
2022-08-07T08:00:10.197Z,21.58
2022-08-07T08:02:03.206Z,21.58
2022-08-07T08:02:11.251Z,21.48
2022-08-07T08:03:16.339Z,21.30
2022-08-07T08:04:11.967Z,21.16
2022-08-07T08:05:11.350Z,21.10
2022-08-07T08:06:13.049Z,21.08
2022-08-07T08:07:10.120Z,21.10
2022-08-07T08:08:10.107Z,21.15
2022-08-07T08:09:11.111Z,21.20
2022-08-07T08:10:10.109Z,21.23
2022-08-07T08:11:16.538Z,21.21
2022-08-07T08:12:11.053Z,21.21
2022-08-07T08:13:10.313Z,21.26
2022-08-07T08:14:11.202Z,21.29
2022-08-07T08:15:10.057Z,21.26
2022-08-07T08:16:12.742Z,21.21
2022-08-07T08:18:18.061Z,21.20
2022-08-07T08:18:36.531Z,21.20
2022-08-07T08:20:15.720Z,21.21
2022-08-07T08:20:22.415Z,21.20
2022-08-07T08:21:10.954Z,21.17
2022-08-07T08:22:10.644Z,21.12
2022-08-07T08:23:09.937Z,21.10
2022-08-07T08:24:18.575Z,21.13
2022-08-07T08:25:25.131Z,21.18
2022-08-07T08:26:10.896Z,21.22
2022-08-07T08:27:09.882Z,21.27
2022-08-07T08:28:09.879Z,21.35
2022-08-07T08:29:09.856Z,21.43
2022-08-07T08:30:11.404Z,21.50
2022-08-07T08:31:16.031Z,21.57
2022-08-07T08:32:18.567Z,21.68
2022-08-07T08:33:16.113Z,21.76
2022-08-07T08:34:12.449Z,21.80
2022-08-07T08:35:10.814Z,21.85
2022-08-07T08:36:09.794Z,21.91
2022-08-07T08:38:01.684Z,21.98
2022-08-07T08:38:10.913Z,22.08
2022-08-07T08:39:09.768Z,22.19
2022-08-07T08:40:12.327Z,22.31
2022-08-07T08:41:10.718Z,22.43
2022-08-07T08:42:09.712Z,22.55
2022-08-07T08:43:09.726Z,22.67
2022-08-07T08:44:09.689Z,22.71
2022-08-07T08:45:13.076Z,22.66
2022-08-07T08:46:09.685Z,22.59
2022-08-07T08:47:10.081Z,22.55
2022-08-07T08:48:10.752Z,22.51
2022-08-07T08:49:09.795Z,22.49
2022-08-07T08:50:09.611Z,22.48
2022-08-07T08:51:14.774Z,22.46
2022-08-07T08:52:13.909Z,22.39
2022-08-07T08:53:09.585Z,22.34
2022-08-07T08:54:09.574Z,22.30
2022-08-07T08:55:09.551Z,22.28
2022-08-07T08:56:10.544Z,22.28
2022-08-07T08:57:09.524Z,22.28
2022-08-07T08:58:13.299Z,22.30
2022-08-07T08:59:13.513Z,22.34
2022-08-07T09:00:10.504Z,22.40
2022-08-07T09:01:15.391Z,22.46
2022-08-07T09:02:10.511Z,22.52
2022-08-07T09:03:09.461Z,22.59
2022-08-07T09:04:11.013Z,22.65
2022-08-07T09:05:09.436Z,22.68
2022-08-07T09:06:11.461Z,22.70
2022-08-07T09:07:11.317Z,22.70
2022-08-07T09:08:09.391Z,22.68
2022-08-07T09:09:20.766Z,22.68
2022-08-07T09:10:10.393Z,22.72
2022-08-07T09:11:09.366Z,22.79
2022-08-07T09:12:19.992Z,22.85
2022-08-07T09:13:10.337Z,22.89
2022-08-07T09:14:09.599Z,22.90
2022-08-07T09:16:22.612Z,22.97
2022-08-07T09:16:25.763Z,22.93
2022-08-07T09:17:10.291Z,22.99
2022-08-07T09:18:15.786Z,22.99
2022-08-07T09:19:52.942Z,22.99
2022-08-07T09:20:34.962Z,23.00
2022-08-07T09:21:13.775Z,23.03
2022-08-07T09:22:37.058Z,23.06
2022-08-07T09:24:31.969Z,23.09
2022-08-07T09:24:33.628Z,23.13
2022-08-07T09:25:17.301Z,23.17
2022-08-07T09:26:10.212Z,23.21
2022-08-07T09:27:13.407Z,23.24
2022-08-07T09:30:01.206Z,23.28
2022-08-07T09:30:01.792Z,23.25
2022-08-07T09:30:10.194Z,23.33
2022-08-07T09:31:09.141Z,23.36
2022-08-07T09:32:17.175Z,23.34
2022-08-07T09:33:16.645Z,23.35
2022-08-07T09:34:10.092Z,23.39
2022-08-07T09:36:04.016Z,23.44
2022-08-07T09:36:10.072Z,23.48
2022-08-07T09:37:09.098Z,23.52
2022-08-07T09:38:10.307Z,23.56
2022-08-07T09:39:18.069Z,23.61
2022-08-07T09:40:10.072Z,23.67
2022-08-07T09:41:09.035Z,23.73
2022-08-07T09:42:09.284Z,23.80
2022-08-07T09:43:09.013Z,23.84
2022-08-07T09:44:19.234Z,23.87
2022-08-07T09:47:24.220Z,23.90
2022-08-07T09:47:42.457Z,23.89
2022-08-07T09:47:55.261Z,23.86
2022-08-07T09:48:11.616Z,23.82
2022-08-07T09:50:02.605Z,23.77
2022-08-07T09:50:18.930Z,23.71
2022-08-07T09:51:26.033Z,23.67
2022-08-07T09:52:33.641Z,23.64
2022-08-07T09:53:09.907Z,23.62
2022-08-07T09:54:11.495Z,23.63
2022-08-07T09:55:28.726Z,23.67
2022-08-07T09:56:09.846Z,23.72
2022-08-07T09:57:12.941Z,23.77
2022-08-07T09:58:09.820Z,23.84
2022-08-07T09:59:14.063Z,23.91
2022-08-07T10:00:14.468Z,23.98
2022-08-07T10:01:23.276Z,24.04
2022-08-07T10:02:09.781Z,24.10
2022-08-07T10:04:05.809Z,24.16
2022-08-07T10:04:14.843Z,24.22
2022-08-07T10:05:12.550Z,24.29
2022-08-07T10:06:12.275Z,24.36
2022-08-07T10:07:24.605Z,24.43
2022-08-07T10:08:09.731Z,24.48
2022-08-07T10:09:08.752Z,24.52
2022-08-07T10:10:11.961Z,24.56
2022-08-07T10:11:17.255Z,24.59
2022-08-07T10:12:18.099Z,24.62
2022-08-07T10:13:10.960Z,24.64
2022-08-07T10:14:11.278Z,24.65
2022-08-07T10:15:08.629Z,24.69
2022-08-07T10:16:09.753Z,24.73
2022-08-07T10:17:14.065Z,24.77
2022-08-07T10:18:09.592Z,24.79
2022-08-07T10:19:11.355Z,24.80
2022-08-07T10:20:12.889Z,24.80
2022-08-07T10:21:20.031Z,24.80
2022-08-07T10:22:16.282Z,24.80
2022-08-07T10:23:09.723Z,24.83
2022-08-07T10:24:09.959Z,24.87
2022-08-07T10:25:08.537Z,24.91
2022-08-07T10:26:08.522Z,24.92
2022-08-07T10:27:10.471Z,24.94
2022-08-07T10:28:08.482Z,24.98
2022-08-07T10:29:08.467Z,25.00
2022-08-07T10:30:12.435Z,24.96
2022-08-07T10:31:11.035Z,24.91
2022-08-07T10:32:36.901Z,24.89
2022-08-07T10:33:09.428Z,24.89
2022-08-07T10:34:15.059Z,24.90
2022-08-07T10:35:14.876Z,24.92
2022-08-07T10:36:11.292Z,24.95
2022-08-07T10:37:12.309Z,24.94
2022-08-07T10:38:20.938Z,24.90
2022-08-07T10:39:09.480Z,24.83
2022-08-07T10:40:09.178Z,24.78
2022-08-07T10:41:08.352Z,24.77
2022-08-07T10:42:09.767Z,24.78
2022-08-07T10:43:09.321Z,24.77
2022-08-07T10:44:08.299Z,24.74
2022-08-07T10:45:08.301Z,24.72
2022-08-07T10:46:08.312Z,24.70
2022-08-07T10:47:11.904Z,24.69
2022-08-07T10:48:09.721Z,24.68
2022-08-07T10:49:08.259Z,24.70
2022-08-07T10:50:08.232Z,24.72
2022-08-07T10:51:16.825Z,24.76
2022-08-07T10:52:13.773Z,24.81
2022-08-07T10:53:09.136Z,24.85
2022-08-07T10:54:08.219Z,24.88
2022-08-07T10:55:26.971Z,24.91
2022-08-07T10:56:09.192Z,24.95
2022-08-07T10:57:09.401Z,24.98
2022-08-07T10:58:08.144Z,25.00
2022-08-07T10:59:08.132Z,25.02
2022-08-07T11:00:08.888Z,25.03
2022-08-07T11:01:11.680Z,25.04
2022-08-07T11:02:27.219Z,25.05
2022-08-07T11:03:11.344Z,25.05
2022-08-07T11:04:23.326Z,25.06
2022-08-07T11:05:10.755Z,25.05
2022-08-07T11:06:08.069Z,25.05
2022-08-07T11:07:14.839Z,25.05
2022-08-07T11:08:09.304Z,25.06
2022-08-07T11:09:11.540Z,25.06
2022-08-07T11:10:10.855Z,25.03
2022-08-07T11:11:07.999Z,24.98
2022-08-07T11:12:08.008Z,24.93
2022-08-07T11:14:41.764Z,24.91
2022-08-07T11:14:44.756Z,24.88
2022-08-07T11:15:14.722Z,24.86
2022-08-07T11:16:08.937Z,24.85
2022-08-07T11:17:09.031Z,24.86
2022-08-07T11:18:09.558Z,24.88
2022-08-07T11:19:07.919Z,24.90
2022-08-07T11:20:07.905Z,24.92
2022-08-07T11:21:07.893Z,24.93
2022-08-07T11:22:18.742Z,24.94
2022-08-07T11:23:09.251Z,24.94
2022-08-07T11:24:08.493Z,24.90
2022-08-07T11:25:07.852Z,24.82
2022-08-07T11:26:07.840Z,24.75
2022-08-07T11:27:07.820Z,24.71
2022-08-07T11:28:09.040Z,24.70
2022-08-07T11:29:13.105Z,24.71
2022-08-07T11:30:18.709Z,24.71
2022-08-07T11:31:11.452Z,24.71
2022-08-07T11:32:07.750Z,24.72
2022-08-07T11:33:08.143Z,24.72
2022-08-07T11:34:10.263Z,24.72
2022-08-07T11:35:09.377Z,24.74
2022-08-07T11:36:10.099Z,24.76
2022-08-07T11:37:11.789Z,24.78
2022-08-07T11:38:10.142Z,24.79
2022-08-07T11:39:07.761Z,24.79
2022-08-07T11:40:07.753Z,24.79
2022-08-07T11:41:07.667Z,24.80
2022-08-07T11:42:07.647Z,24.79
2022-08-07T11:43:08.634Z,24.75
2022-08-07T11:44:12.270Z,24.68
2022-08-07T11:45:07.616Z,24.58
2022-08-07T11:46:07.595Z,24.48
2022-08-07T11:47:07.597Z,24.41
2022-08-07T11:48:13.892Z,24.36
2022-08-07T11:49:50.717Z,24.34
2022-08-07T11:50:30.453Z,24.35
2022-08-07T11:51:09.030Z,24.34
2022-08-07T11:52:07.605Z,24.31
2022-08-07T11:53:07.525Z,24.29
2022-08-07T11:54:10.105Z,24.29
2022-08-07T11:55:13.117Z,24.29
2022-08-07T11:56:25.688Z,24.30
2022-08-07T11:57:12.808Z,24.31
2022-08-07T11:58:16.313Z,24.33
2022-08-07T12:00:08.086Z,24.37
2022-08-07T12:00:18.761Z,24.41
2022-08-07T12:01:08.427Z,24.45
2022-08-07T12:02:17.809Z,24.48
2022-08-07T12:03:08.467Z,24.51
2022-08-07T12:04:08.405Z,24.55
2022-08-07T12:05:15.025Z,24.58
2022-08-07T12:06:36.442Z,24.61
2022-08-07T12:07:20.360Z,24.64
2022-08-07T12:08:08.338Z,24.65
2022-08-07T12:09:08.341Z,24.67
2022-08-07T12:10:08.444Z,24.67
2022-08-07T12:11:20.233Z,24.67
2022-08-07T12:12:10.937Z,24.67
2022-08-07T12:13:11.665Z,24.68
2022-08-07T12:14:08.272Z,24.68
2022-08-07T12:15:08.090Z,24.69
2022-08-07T12:16:09.178Z,24.71
2022-08-07T12:17:07.248Z,24.73
2022-08-07T12:18:08.221Z,24.73
2022-08-07T12:19:07.214Z,24.73
2022-08-07T12:20:19.991Z,24.74
2022-08-07T12:21:08.185Z,24.75
2022-08-07T12:22:38.654Z,24.77
2022-08-07T12:23:09.237Z,24.79
2022-08-07T12:24:37.332Z,24.80
2022-08-07T12:25:08.146Z,24.81
2022-08-07T12:26:29.042Z,24.81
2022-08-07T12:27:13.215Z,24.82
2022-08-07T12:28:09.303Z,24.82
2022-08-07T12:29:07.104Z,24.84
2022-08-07T12:30:07.421Z,24.85
2022-08-07T12:31:09.291Z,24.84
2022-08-07T12:32:12.445Z,24.81
2022-08-07T12:33:18.816Z,24.78
2022-08-07T12:34:11.041Z,24.78
2022-08-07T12:35:07.373Z,24.78
2022-08-07T12:36:07.018Z,24.78
2022-08-07T12:37:08.797Z,24.78
2022-08-07T12:38:11.558Z,24.78
2022-08-07T12:39:41.102Z,24.78
2022-08-07T12:40:23.972Z,24.78
2022-08-07T12:41:09.914Z,24.78
2022-08-07T12:42:07.051Z,24.79
2022-08-07T12:43:09.911Z,24.80
2022-08-07T12:44:10.428Z,24.81
2022-08-07T12:45:07.993Z,24.82
2022-08-07T12:46:06.898Z,24.84
2022-08-07T12:47:06.889Z,24.85
2022-08-07T12:48:13.158Z,24.87
2022-08-07T12:49:09.897Z,24.88
2022-08-07T12:50:38.245Z,24.88
2022-08-07T12:51:13.190Z,24.88
2022-08-07T12:52:13.785Z,24.88